Main page
METAR-TAF:

METAR-TAF

Airports :

Morón Air Base

Morón de la Frontera, Spain

latitude: 37-09N, longitude: 005-37W, elevation: 87 m

Current weather observation

The report was made 15 hours and 36 minutes ago, at 13:00 UTC
Wind 6 kt from variable directions with gusts up to 16 kt
Temperature 31°C
Humidity 40%
Pressure 1016 hPa
Visibility 10 km or more
no clouds below 1500 m and no cumulonimbus

METAR: LEMO 151300Z VRB06G16KT CAVOK 31/16 Q1016 NOSIG

Time: 06:36 (04:36 UTC)

Forecast

The report was made 2 hours and 36 minutes ago, at 02:00 UTC
Forecast valid from 16 at 03 UTC to 16 at 12 UTC
Wind 4 kt from the Southwest
Visibility 10 km or more
Broken clouds at a height of 1800 ft
Probability 40% :
Temporary
from 16 at 03 UTC to 16 at 07 UTC
Broken clouds at a height of 1400 ft

TAF: LEMO 160200Z 1603/1612 22004KT 9999 BKN018 PROB40 TEMPO 1603/1607 BKN014

Weather observations and forecasts of more than 4000 airports (METAR and TAF reports).

The available stations are represented by yellow and red dots on the map.

Hover mouse over dot to see the name of the station.

Then click to see weather observations and forecasts.

To change the map : click on the green buttons with a black cross to zoom in, on the green button with a dash to zoom out, or on the green arrows for adjacent maps.


METAR-TAF: